createdAt,value
2022-08-19T00:01:56.962Z,53.05
2022-08-19T00:04:30.496Z,52.79
2022-08-19T00:06:58.898Z,52.84
2022-08-19T00:09:26.426Z,52.88
2022-08-19T00:11:56.378Z,52.85
2022-08-19T00:14:25.305Z,52.92
2022-08-19T00:16:55.396Z,53.17
2022-08-19T00:19:24.451Z,53.14
2022-08-19T00:21:52.229Z,52.91
2022-08-19T00:24:19.833Z,53.17
2022-08-19T00:26:46.967Z,53.02
2022-08-19T00:29:17.874Z,53.14
2022-08-19T00:31:45.267Z,53.36
2022-08-19T00:34:14.321Z,53.23
2022-08-19T00:36:42.433Z,53.27
2022-08-19T00:39:10.638Z,53.46
2022-08-19T00:41:38.051Z,53.41
2022-08-19T00:44:12.002Z,53.39
2022-08-19T00:46:44.032Z,53.26
2022-08-19T00:49:41.724Z,53.68
2022-08-19T00:52:15.454Z,53.31
2022-08-19T00:54:44.414Z,53.50
2022-08-19T00:57:15.719Z,53.47
2022-08-19T01:00:00.943Z,53.67
2022-08-19T01:02:32.011Z,53.66
2022-08-19T01:05:01.283Z,53.63
2022-08-19T01:07:28.173Z,53.76
2022-08-19T01:10:04.673Z,53.60
2022-08-19T01:12:31.937Z,53.53
2022-08-19T01:14:59.922Z,53.71
2022-08-19T01:17:26.864Z,53.92
2022-08-19T01:19:53.654Z,53.82
2022-08-19T01:22:33.730Z,53.99
2022-08-19T01:25:01.694Z,53.82
2022-08-19T01:27:43.795Z,53.86
2022-08-19T01:30:19.762Z,53.93
2022-08-19T01:32:46.639Z,54.08
2022-08-19T01:35:15.689Z,54.06
2022-08-19T01:37:56.660Z,53.93
2022-08-19T01:40:30.042Z,54.06
2022-08-19T01:42:56.930Z,54.13
2022-08-19T01:45:27.654Z,54.16
2022-08-19T01:48:02.122Z,54.07
2022-08-19T01:50:32.505Z,54.15
2022-08-19T01:53:05.929Z,54.40
2022-08-19T01:55:35.394Z,54.24
2022-08-19T01:58:14.401Z,54.38
2022-08-19T02:00:41.673Z,54.19
2022-08-19T02:03:12.084Z,54.49
2022-08-19T02:05:40.109Z,54.29
2022-08-19T02:08:07.865Z,54.45
2022-08-19T02:10:34.998Z,54.59
2022-08-19T02:13:01.795Z,54.37
2022-08-19T02:15:28.613Z,54.60
2022-08-19T02:17:55.400Z,54.66
2022-08-19T02:20:23.401Z,54.60
2022-08-19T02:22:50.317Z,54.82
2022-08-19T02:25:17.255Z,54.71
2022-08-19T02:27:44.421Z,54.75
2022-08-19T02:30:17.732Z,54.64
2022-08-19T02:32:45.199Z,54.68
2022-08-19T02:35:14.582Z,54.59
2022-08-19T02:38:01.336Z,54.73
2022-08-19T02:40:30.744Z,54.73
2022-08-19T02:42:57.567Z,54.70
2022-08-19T02:45:24.449Z,54.66
2022-08-19T02:47:51.325Z,54.75
2022-08-19T02:50:18.597Z,54.73
2022-08-19T02:52:46.355Z,54.97
2022-08-19T02:55:13.154Z,54.77
2022-08-19T02:57:39.966Z,54.89
2022-08-19T03:00:09.843Z,54.99
2022-08-19T03:02:36.705Z,54.67
2022-08-19T03:05:05.552Z,54.79
2022-08-19T03:07:32.349Z,54.90
2022-08-19T03:09:59.525Z,54.85
2022-08-19T03:12:26.390Z,54.86
2022-08-19T03:14:53.698Z,54.80
2022-08-19T03:17:20.907Z,54.87
2022-08-19T03:19:47.741Z,55.01
2022-08-19T03:22:15.011Z,54.95
2022-08-19T03:24:41.839Z,54.80
2022-08-19T03:27:08.690Z,54.98
2022-08-19T03:29:43.139Z,54.73
2022-08-19T03:32:24.439Z,54.98
2022-08-19T03:34:58.540Z,54.93
2022-08-19T03:37:25.335Z,54.90
2022-08-19T03:39:52.845Z,54.84
2022-08-19T03:42:32.483Z,54.94
2022-08-19T03:45:00.239Z,54.87
2022-08-19T03:47:27.039Z,55.14
2022-08-19T03:49:53.858Z,55.19
2022-08-19T03:52:20.654Z,55.38
2022-08-19T03:54:47.442Z,55.32
2022-08-19T03:57:14.269Z,55.46
2022-08-19T03:59:41.197Z,55.46
2022-08-19T04:02:12.366Z,55.50
2022-08-19T04:04:42.043Z,55.75
2022-08-19T04:07:10.341Z,55.61
2022-08-19T04:09:37.805Z,55.78
2022-08-19T04:12:06.642Z,56.03
2022-08-19T04:14:34.820Z,55.94
2022-08-19T04:17:05.655Z,55.78
2022-08-19T04:19:35.156Z,55.89
2022-08-19T04:22:02.353Z,55.88
2022-08-19T04:24:29.224Z,55.84
2022-08-19T04:26:56.761Z,55.98
2022-08-19T04:29:26.335Z,56.08
2022-08-19T04:31:55.638Z,55.83
2022-08-19T04:34:26.151Z,56.06
2022-08-19T04:36:55.525Z,56.17
2022-08-19T04:39:48.493Z,55.94
2022-08-19T04:42:35.988Z,56.13
2022-08-19T04:45:05.411Z,56.00
2022-08-19T04:47:47.469Z,55.98
2022-08-19T04:50:23.490Z,56.16
2022-08-19T04:52:52.695Z,56.09
2022-08-19T04:55:19.693Z,56.25
2022-08-19T04:57:46.535Z,55.99
2022-08-19T05:00:13.872Z,55.87
2022-08-19T05:02:40.775Z,55.99
2022-08-19T05:05:08.310Z,56.27
2022-08-19T05:07:35.493Z,55.94
2022-08-19T05:10:04.251Z,56.05
2022-08-19T05:12:31.080Z,56.11
2022-08-19T05:14:59.066Z,55.84
2022-08-19T05:17:28.964Z,55.87
2022-08-19T05:20:16.799Z,55.84
2022-08-19T05:22:47.033Z,55.91
2022-08-19T05:25:21.631Z,55.63
2022-08-19T05:27:49.134Z,55.65
2022-08-19T05:30:17.198Z,55.60
2022-08-19T05:32:44.474Z,55.71
2022-08-19T05:35:12.573Z,55.90
2022-08-19T05:37:41.081Z,55.47
2022-08-19T05:40:09.542Z,55.38
2022-08-19T05:42:36.369Z,55.54
2022-08-19T05:45:03.997Z,55.75
2022-08-19T05:47:30.816Z,55.41
2022-08-19T05:49:57.650Z,55.58
2022-08-19T05:52:25.454Z,55.37
2022-08-19T05:54:55.645Z,55.43
2022-08-19T05:57:23.659Z,55.36
2022-08-19T05:59:57.631Z,55.28
2022-08-19T06:02:27.261Z,55.32
2022-08-19T06:04:54.160Z,55.21
2022-08-19T06:07:20.977Z,55.07
2022-08-19T06:09:59.728Z,55.35
2022-08-19T06:12:32.440Z,55.18
2022-08-19T06:15:01.103Z,55.32
2022-08-19T06:17:31.285Z,54.91
2022-08-19T06:19:59.454Z,55.13
2022-08-19T06:22:26.867Z,55.03
2022-08-19T06:24:54.798Z,55.06
2022-08-19T06:27:22.720Z,55.00
2022-08-19T06:29:50.092Z,55.01
2022-08-19T06:32:19.508Z,55.04
2022-08-19T06:34:46.817Z,54.71
2022-08-19T06:37:14.622Z,54.79
2022-08-19T06:39:45.650Z,54.71
2022-08-19T06:42:14.121Z,54.81
2022-08-19T06:44:43.803Z,54.64
2022-08-19T06:47:23.464Z,54.78
2022-08-19T06:49:54.894Z,54.67
2022-08-19T06:52:27.755Z,54.65
2022-08-19T06:54:57.062Z,54.51
2022-08-19T06:57:28.090Z,54.44
2022-08-19T06:59:56.450Z,54.52
2022-08-19T07:02:27.109Z,54.32
2022-08-19T07:04:54.459Z,54.35
2022-08-19T07:07:23.133Z,54.37
2022-08-19T07:09:58.545Z,54.10
2022-08-19T07:12:30.551Z,54.12
2022-08-19T07:14:59.011Z,54.26
2022-08-19T07:17:27.878Z,54.08
2022-08-19T07:19:54.925Z,54.12
2022-08-19T07:22:23.815Z,53.97
2022-08-19T07:24:54.057Z,53.92
2022-08-19T07:27:25.184Z,54.00
2022-08-19T07:29:57.282Z,53.83
2022-08-19T07:32:28.343Z,53.77
2022-08-19T07:34:56.635Z,53.34
2022-08-19T07:37:27.361Z,53.54
2022-08-19T07:39:56.403Z,53.54
2022-08-19T07:42:23.462Z,53.49
2022-08-19T07:44:50.993Z,53.40
2022-08-19T07:47:48.353Z,53.01
2022-08-19T07:50:12.046Z,53.05
2022-08-19T07:52:45.145Z,52.98
2022-08-19T07:55:41.105Z,52.90
2022-08-19T07:58:05.665Z,52.88
2022-08-19T08:00:32.484Z,52.88
2022-08-19T08:02:59.282Z,52.75
2022-08-19T08:05:44.900Z,52.54
2022-08-19T08:08:44.515Z,52.41
2022-08-19T08:11:17.668Z,52.31
2022-08-19T08:13:47.092Z,52.32
2022-08-19T08:16:32.072Z,52.13
2022-08-19T08:18:59.281Z,51.85
2022-08-19T08:21:26.216Z,51.47
2022-08-19T08:23:56.431Z,51.36
2022-08-19T08:26:23.816Z,51.35
2022-08-19T08:28:50.839Z,51.03
2022-08-19T08:31:19.515Z,51.17
2022-08-19T08:33:48.880Z,51.21
2022-08-19T08:36:16.353Z,50.97
2022-08-19T08:38:47.630Z,50.89
2022-08-19T08:41:53.604Z,51.04
2022-08-19T08:47:26.399Z,50.80
2022-08-19T08:50:00.682Z,50.64
2022-08-19T08:52:36.361Z,50.53
2022-08-19T08:55:12.527Z,50.55
2022-08-19T08:57:48.542Z,50.47
2022-08-19T09:00:27.472Z,50.57
2022-08-19T09:02:59.350Z,50.36
2022-08-19T09:06:04.287Z,50.59
2022-08-19T09:08:44.311Z,50.80
2022-08-19T09:11:47.189Z,50.24
2022-08-19T09:14:51.963Z,50.74
2022-08-19T09:17:28.364Z,50.33
2022-08-19T09:20:11.230Z,50.02
2022-08-19T09:22:40.491Z,50.19
2022-08-19T09:25:10.049Z,50.24
2022-08-19T09:27:43.691Z,49.86
2022-08-19T09:30:26.369Z,49.96
2022-08-19T09:32:54.083Z,49.72
2022-08-19T09:35:24.387Z,49.56
2022-08-19T09:37:57.600Z,49.54
2022-08-19T09:40:33.474Z,49.66
2022-08-19T09:43:09.860Z,49.33
2022-08-19T09:45:37.082Z,49.37
2022-08-19T09:48:04.314Z,49.32
2022-08-19T09:50:35.041Z,49.49
2022-08-19T09:53:01.853Z,49.36
2022-08-19T09:55:31.001Z,49.23
2022-08-19T09:58:01.203Z,49.36
2022-08-19T10:00:28.136Z,49.33
2022-08-19T10:02:54.913Z,49.46
2022-08-19T10:05:42.607Z,49.09
2022-08-19T10:08:13.534Z,48.93
2022-08-19T10:10:46.679Z,48.88
2022-08-19T10:13:16.693Z,49.09
2022-08-19T10:15:45.021Z,48.68
2022-08-19T10:18:14.882Z,48.69
2022-08-19T10:20:42.759Z,48.58
2022-08-19T10:23:10.451Z,48.23
2022-08-19T10:25:38.396Z,47.84
2022-08-19T10:28:10.614Z,47.70
2022-08-19T10:30:38.338Z,47.68
2022-08-19T10:33:08.674Z,47.82
2022-08-19T10:35:56.356Z,47.66
2022-08-19T10:38:31.528Z,47.50
2022-08-19T10:41:07.499Z,47.65
2022-08-19T10:43:37.715Z,47.06
2022-08-19T10:46:06.614Z,47.21
2022-08-19T10:48:42.598Z,47.24
2022-08-19T10:51:29.053Z,47.26
2022-08-19T10:53:56.644Z,46.76
2022-08-19T10:56:42.418Z,46.41
2022-08-19T10:59:09.804Z,46.13
2022-08-19T11:01:36.903Z,46.53
2022-08-19T11:04:05.356Z,45.84
2022-08-19T11:06:35.403Z,46.25
2022-08-19T11:09:02.250Z,46.25
2022-08-19T11:11:29.473Z,46.14
2022-08-19T11:13:56.764Z,46.65
2022-08-19T11:16:27.461Z,46.16
2022-08-19T11:18:59.295Z,45.94
2022-08-19T11:21:34.066Z,45.43
2022-08-19T11:24:05.039Z,45.86
2022-08-19T11:26:32.491Z,45.24
2022-08-19T11:29:00.770Z,45.21
2022-08-19T11:31:32.224Z,45.55
2022-08-19T11:34:02.443Z,45.53
2022-08-19T11:36:29.900Z,45.11
2022-08-19T11:38:56.768Z,44.95
2022-08-19T11:41:25.498Z,44.84
2022-08-19T11:43:56.008Z,45.10
2022-08-19T11:46:26.373Z,44.85
2022-08-19T11:48:53.471Z,44.39
2022-08-19T11:51:25.580Z,44.71
2022-08-19T11:53:53.993Z,44.98
2022-08-19T11:56:22.275Z,44.89
2022-08-19T11:58:49.430Z,44.82
2022-08-19T12:01:20.222Z,44.82
2022-08-19T12:03:49.739Z,44.50
2022-08-19T12:06:24.893Z,44.41
2022-08-19T12:08:51.690Z,44.26
2022-08-19T12:11:19.464Z,44.51
2022-08-19T12:13:47.099Z,43.63
2022-08-19T12:16:20.791Z,43.69
2022-08-19T12:18:48.278Z,43.99
2022-08-19T12:21:17.289Z,43.82
2022-08-19T12:23:46.274Z,43.10
2022-08-19T12:26:13.745Z,43.64
2022-08-19T12:28:40.739Z,42.53
2022-08-19T12:31:07.713Z,42.72
2022-08-19T12:33:34.946Z,42.50
2022-08-19T12:36:05.453Z,43.23
2022-08-19T12:38:33.324Z,42.92
2022-08-19T12:41:00.623Z,42.80
2022-08-19T12:43:28.354Z,42.36
2022-08-19T12:45:55.146Z,42.29
2022-08-19T12:48:32.941Z,42.05
2022-08-19T12:51:06.237Z,41.93
2022-08-19T12:53:33.035Z,42.18
2022-08-19T12:56:01.507Z,41.82
2022-08-19T12:58:29.856Z,41.59
2022-08-19T13:00:56.743Z,41.49
2022-08-19T13:03:29.814Z,41.33
2022-08-19T13:05:57.682Z,41.17
2022-08-19T13:08:24.768Z,40.75
2022-08-19T13:10:51.750Z,40.98
2022-08-19T13:13:18.594Z,40.70
2022-08-19T13:15:46.211Z,40.48
2022-08-19T13:18:15.349Z,40.63
2022-08-19T13:20:42.631Z,40.68
2022-08-19T13:23:19.478Z,40.61
2022-08-19T13:25:46.254Z,40.64
2022-08-19T13:28:14.970Z,40.62
2022-08-19T13:31:26.415Z,40.64
2022-08-19T13:33:53.224Z,40.28
2022-08-19T13:36:20.015Z,40.10
2022-08-19T13:38:46.833Z,40.25
2022-08-19T13:41:15.001Z,40.09
2022-08-19T13:43:42.292Z,39.85
2022-08-19T13:46:14.901Z,40.08
2022-08-19T13:48:42.913Z,39.73
2022-08-19T13:51:11.286Z,39.80
2022-08-19T13:53:40.285Z,39.50
2022-08-19T13:56:09.083Z,39.69
2022-08-19T13:58:36.099Z,39.38
2022-08-19T14:01:03.054Z,39.11
2022-08-19T14:03:29.990Z,39.11
2022-08-19T14:05:57.323Z,38.83
2022-08-19T14:08:25.201Z,38.81
2022-08-19T14:10:52.075Z,38.82
2022-08-19T14:13:22.711Z,38.47
2022-08-19T14:15:50.986Z,38.70
2022-08-19T14:18:19.377Z,38.51
2022-08-19T14:20:46.799Z,38.15
2022-08-19T14:23:14.620Z,38.12
2022-08-19T14:25:41.496Z,37.83
2022-08-19T14:28:08.653Z,37.46
2022-08-19T14:30:38.639Z,37.50
2022-08-19T14:33:06.636Z,37.54
2022-08-19T14:35:35.618Z,37.25
2022-08-19T14:38:07.172Z,37.43
2022-08-19T14:40:34.170Z,37.76
2022-08-19T14:43:05.336Z,37.68
2022-08-19T14:45:40.673Z,37.66
2022-08-19T14:48:19.045Z,37.21
2022-08-19T14:50:46.596Z,36.72
2022-08-19T14:53:13.514Z,36.33
2022-08-19T14:55:45.590Z,36.03
2022-08-19T14:58:29.754Z,36.01
2022-08-19T15:01:00.988Z,36.20
2022-08-19T15:03:29.020Z,36.36
2022-08-19T15:05:57.410Z,36.41
2022-08-19T15:08:25.833Z,35.91
2022-08-19T15:10:53.600Z,35.94
2022-08-19T15:13:20.409Z,35.95
2022-08-19T15:15:48.325Z,36.14
2022-08-19T15:18:15.622Z,35.81
2022-08-19T15:20:44.351Z,36.22
2022-08-19T15:23:18.217Z,36.25
2022-08-19T15:25:45.137Z,36.42
2022-08-19T15:28:12.774Z,36.04
2022-08-19T15:30:41.602Z,36.48
2022-08-19T15:33:08.821Z,36.67
2022-08-19T15:35:35.702Z,36.45
2022-08-19T15:38:02.543Z,36.25
2022-08-19T15:40:29.353Z,36.20
2022-08-19T15:42:57.265Z,36.55
2022-08-19T15:45:32.634Z,35.96
2022-08-19T15:48:04.531Z,35.66
2022-08-19T15:50:32.301Z,35.29
2022-08-19T15:53:07.332Z,34.56
2022-08-19T15:55:38.054Z,34.76
2022-08-19T15:58:31.867Z,34.75
2022-08-19T16:01:21.827Z,35.14
2022-08-19T16:04:14.805Z,35.15
2022-08-19T16:06:53.237Z,35.14
2022-08-19T16:09:27.496Z,35.06
2022-08-19T16:12:01.189Z,34.93
2022-08-19T16:14:30.539Z,35.01
2022-08-19T16:16:57.467Z,34.81
2022-08-19T16:19:25.204Z,34.91
2022-08-19T16:21:55.908Z,34.98
2022-08-19T16:24:26.462Z,34.75
2022-08-19T16:26:54.527Z,34.62
2022-08-19T16:29:34.490Z,34.37
2022-08-19T16:32:10.379Z,34.48
2022-08-19T16:34:40.017Z,34.23
2022-08-19T16:37:07.163Z,34.19
2022-08-19T16:39:34.072Z,34.22
2022-08-19T16:42:01.072Z,33.80
2022-08-19T16:44:29.914Z,33.75
2022-08-19T16:47:00.378Z,33.92
2022-08-19T16:49:54.473Z,33.59
2022-08-19T16:52:17.799Z,33.59
2022-08-19T16:54:44.952Z,33.52
2022-08-19T16:57:12.889Z,33.47
2022-08-19T16:59:42.505Z,33.54
2022-08-19T17:02:15.716Z,33.57
2022-08-19T17:04:42.497Z,33.40
2022-08-19T17:07:10.610Z,33.35
2022-08-19T17:09:37.989Z,33.39
2022-08-19T17:12:05.208Z,33.45
2022-08-19T17:14:32.003Z,32.96
2022-08-19T17:16:58.784Z,33.24
2022-08-19T17:19:25.682Z,33.19
2022-08-19T17:21:52.826Z,32.63
2022-08-19T17:24:19.963Z,32.71
2022-08-19T17:26:46.744Z,33.09
2022-08-19T17:29:14.119Z,33.11
2022-08-19T17:31:40.938Z,32.74
2022-08-19T17:34:09.238Z,33.01
2022-08-19T17:36:36.283Z,32.93
2022-08-19T17:39:05.207Z,33.23
2022-08-19T17:41:34.092Z,32.88
2022-08-19T17:44:02.391Z,32.79
2022-08-19T17:46:30.289Z,33.19
2022-08-19T17:48:58.273Z,33.17
2022-08-19T17:51:31.389Z,33.20
2022-08-19T17:53:59.201Z,33.39
2022-08-19T17:56:28.640Z,33.97
2022-08-19T17:58:59.872Z,33.90
2022-08-19T18:01:41.610Z,34.10
2022-08-19T18:04:18.760Z,34.22
2022-08-19T18:06:52.623Z,34.41
2022-08-19T18:09:23.792Z,34.57
2022-08-19T18:11:53.382Z,34.79
2022-08-19T18:14:28.099Z,34.59
2022-08-19T18:17:02.771Z,34.87
2022-08-19T18:19:30.215Z,35.07
2022-08-19T18:22:22.342Z,35.24
2022-08-19T18:24:49.201Z,35.17
2022-08-19T18:27:16.046Z,35.60
2022-08-19T18:29:43.357Z,35.63
2022-08-19T18:32:13.431Z,35.44
2022-08-19T18:34:42.248Z,35.93
2022-08-19T18:37:09.759Z,36.01
2022-08-19T18:39:55.645Z,36.04
2022-08-19T18:42:41.439Z,36.26
2022-08-19T18:45:28.149Z,36.53
2022-08-19T18:48:26.933Z,36.74
2022-08-19T18:50:59.533Z,36.55
2022-08-19T18:53:30.491Z,36.86
2022-08-19T18:55:58.563Z,36.82
2022-08-19T18:58:32.057Z,36.93
2022-08-19T19:01:13.611Z,37.54
2022-08-19T19:03:45.268Z,37.61
2022-08-19T19:06:15.382Z,37.94
2022-08-19T19:08:42.191Z,38.22
2022-08-19T19:11:09.265Z,38.08
2022-08-19T19:13:39.757Z,37.98
2022-08-19T19:16:11.391Z,38.44
2022-08-19T19:18:38.365Z,38.74
2022-08-19T19:21:06.213Z,38.66
2022-08-19T19:23:33.475Z,38.54
2022-08-19T19:26:00.794Z,38.72
2022-08-19T19:28:28.059Z,38.89
2022-08-19T19:31:00.047Z,39.11
2022-08-19T19:33:28.091Z,38.96
2022-08-19T19:35:54.889Z,39.24
2022-08-19T19:38:21.759Z,39.47
2022-08-19T19:40:48.894Z,39.55
2022-08-19T19:43:17.099Z,39.77
2022-08-19T19:45:44.609Z,39.69
2022-08-19T19:48:13.423Z,39.79
2022-08-19T19:50:40.399Z,40.13
2022-08-19T19:53:07.243Z,39.82
2022-08-19T19:55:34.073Z,40.10
2022-08-19T19:58:00.890Z,40.50
2022-08-19T20:00:28.818Z,40.48
2022-08-19T20:02:55.911Z,40.55
2022-08-19T20:05:23.914Z,40.52
2022-08-19T20:08:11.405Z,40.26
2022-08-19T20:10:39.753Z,40.66
2022-08-19T20:13:07.068Z,40.64
2022-08-19T20:15:35.434Z,40.56
2022-08-19T20:18:04.752Z,40.56
2022-08-19T20:20:32.127Z,40.75
2022-08-19T20:22:58.909Z,40.89
2022-08-19T20:25:25.764Z,41.04
2022-08-19T20:27:52.673Z,40.86
2022-08-19T20:30:23.149Z,41.13
2022-08-19T20:32:50.824Z,41.12
2022-08-19T20:35:20.992Z,41.26
2022-08-19T20:37:48.351Z,41.32
2022-08-19T20:40:16.473Z,41.48
2022-08-19T20:42:50.463Z,41.62
2022-08-19T20:45:33.060Z,41.56
2022-08-19T20:48:03.414Z,41.69
2022-08-19T20:50:33.034Z,41.77
2022-08-19T20:53:00.717Z,41.87
2022-08-19T20:55:28.798Z,42.13
2022-08-19T20:57:56.489Z,41.94
2022-08-19T21:00:23.479Z,41.99
2022-08-19T21:02:50.297Z,41.97
2022-08-19T21:05:17.165Z,42.58
2022-08-19T21:07:44.285Z,42.21
2022-08-19T21:10:11.180Z,42.20
2022-08-19T21:12:39.036Z,42.33
2022-08-19T21:15:07.121Z,42.50
2022-08-19T21:17:33.907Z,42.66
2022-08-19T21:20:00.689Z,42.65
2022-08-19T21:22:27.507Z,42.67
2022-08-19T21:24:54.309Z,42.73
2022-08-19T21:27:21.086Z,42.83
2022-08-19T21:29:49.021Z,43.24
2022-08-19T21:32:16.270Z,42.93
2022-08-19T21:34:46.348Z,43.29
2022-08-19T21:37:25.248Z,43.45
2022-08-19T21:39:56.022Z,43.17
2022-08-19T21:42:23.352Z,43.48
2022-08-19T21:44:50.143Z,43.35
2022-08-19T21:47:17.358Z,43.57
2022-08-19T21:49:44.186Z,43.51
2022-08-19T21:52:11.099Z,43.80
2022-08-19T21:54:38.658Z,43.58
2022-08-19T21:57:10.706Z,43.78
2022-08-19T21:59:44.065Z,44.00
2022-08-19T22:02:21.302Z,44.11
2022-08-19T22:04:50.750Z,43.94
2022-08-19T22:07:18.253Z,44.02
2022-08-19T22:09:47.582Z,44.60
2022-08-19T22:12:31.429Z,44.48
2022-08-19T22:14:59.941Z,44.31
2022-08-19T22:17:30.205Z,44.34
2022-08-19T22:19:58.398Z,44.52
2022-08-19T22:22:29.736Z,44.74
2022-08-19T22:25:09.191Z,44.64
2022-08-19T22:27:36.536Z,44.59
2022-08-19T22:30:08.265Z,44.72
2022-08-19T22:32:37.274Z,44.97
2022-08-19T22:35:08.204Z,44.92
2022-08-19T22:41:41.379Z,45.22
2022-08-19T22:44:11.205Z,45.43
2022-08-19T22:46:38.314Z,45.16
2022-08-19T22:49:05.140Z,45.20
2022-08-19T22:51:50.287Z,45.39
2022-08-19T22:54:17.612Z,45.43
2022-08-19T22:56:44.926Z,45.80
2022-08-19T22:59:12.161Z,45.79
2022-08-19T23:01:41.626Z,46.00
2022-08-19T23:04:08.434Z,45.60
2022-08-19T23:06:38.213Z,45.80
2022-08-19T23:09:10.265Z,45.83
2022-08-19T23:11:42.051Z,45.99
2022-08-19T23:14:11.244Z,46.27
2022-08-19T23:16:38.559Z,46.00
2022-08-19T23:19:07.140Z,45.95
2022-08-19T23:21:36.146Z,46.21
2022-08-19T23:24:03.315Z,46.39
2022-08-19T23:26:35.161Z,46.14
2022-08-19T23:29:21.486Z,46.43
2022-08-19T23:31:49.541Z,46.32
2022-08-19T23:34:16.538Z,46.34
2022-08-19T23:36:43.395Z,46.26
2022-08-19T23:39:10.225Z,46.43
2022-08-19T23:41:37.022Z,46.51
2022-08-19T23:44:04.113Z,46.71
2022-08-19T23:46:31.252Z,46.49
2022-08-19T23:49:08.994Z,46.50
2022-08-19T23:51:35.819Z,46.64
2022-08-19T23:54:02.629Z,46.51
2022-08-19T23:56:29.426Z,46.67
2022-08-19T23:58:56.224Z,46.66
